createdAt,value
2022-11-29T00:01:05.993Z,49.50
2022-11-29T00:03:33.684Z,46.53
2022-11-29T00:06:12.487Z,49.45
2022-11-29T00:08:39.413Z,47.70
2022-11-29T00:11:08.283Z,48.70
2022-11-29T00:13:35.866Z,48.85
2022-11-29T00:16:12.027Z,47.17
2022-11-29T00:18:38.843Z,46.95
2022-11-29T00:21:09.200Z,47.95
2022-11-29T00:23:36.347Z,46.33
2022-11-29T00:26:05.335Z,47.10
2022-11-29T00:28:32.705Z,46.95
2022-11-29T00:30:59.740Z,47.08
2022-11-29T00:33:27.176Z,46.15
2022-11-29T00:35:53.997Z,50.67
2022-11-29T00:38:20.905Z,46.75
2022-11-29T00:40:52.451Z,46.95
2022-11-29T00:43:19.239Z,44.58
2022-11-29T00:45:46.133Z,48.10
2022-11-29T00:48:12.843Z,44.25
2022-11-29T00:50:39.671Z,46.05
2022-11-29T00:53:06.415Z,43.50
2022-11-29T00:55:33.252Z,41.50
2022-11-29T00:57:59.986Z,45.60
2022-11-29T01:00:26.979Z,45.58
2022-11-29T01:02:53.707Z,44.08
2022-11-29T01:05:20.877Z,44.75
2022-11-29T01:07:47.678Z,43.28
2022-11-29T01:10:14.733Z,45.70
2022-11-29T01:12:41.459Z,46.53
2022-11-29T01:15:08.970Z,43.60
2022-11-29T01:17:36.205Z,44.25
2022-11-29T01:20:05.480Z,44.30
2022-11-29T01:22:32.354Z,44.92
2022-11-29T01:24:59.033Z,43.83
2022-11-29T01:27:25.742Z,48.35
2022-11-29T01:29:52.623Z,45.97
2022-11-29T01:32:19.439Z,49.30
2022-11-29T01:34:46.398Z,48.78
2022-11-29T01:37:13.591Z,44.55
2022-11-29T01:39:40.268Z,42.42
2022-11-29T01:42:07.181Z,47.10
2022-11-29T01:44:33.783Z,43.75
2022-11-29T01:47:00.405Z,45.55
2022-11-29T01:49:32.109Z,41.03
2022-11-29T01:52:22.571Z,39.43
2022-11-29T01:54:52.436Z,44.00
2022-11-29T01:57:20.813Z,40.83
2022-11-29T01:59:51.065Z,42.72
2022-11-29T02:02:23.200Z,42.75
2022-11-29T02:04:50.286Z,42.40
2022-11-29T02:07:17.366Z,42.72
2022-11-29T02:09:44.277Z,40.10
2022-11-29T02:12:29.194Z,39.63
2022-11-29T02:15:08.785Z,39.67
2022-11-29T02:17:41.325Z,41.78
2022-11-29T02:23:02.023Z,39.70
2022-11-29T02:25:42.971Z,41.10
2022-11-29T02:28:45.524Z,42.55
2022-11-29T02:31:34.109Z,39.88
2022-11-29T02:34:14.329Z,39.88
2022-11-29T02:37:18.826Z,42.30
2022-11-29T02:40:39.490Z,42.15
2022-11-29T02:43:37.551Z,38.28
2022-11-29T02:46:12.114Z,42.95
2022-11-29T02:48:57.724Z,40.38
2022-11-29T02:51:34.848Z,41.33
2022-11-29T02:54:26.450Z,42.00
2022-11-29T02:57:19.265Z,43.63
2022-11-29T03:00:13.926Z,40.53
2022-11-29T03:02:56.077Z,41.88
2022-11-29T03:05:41.797Z,43.72
2022-11-29T03:08:25.542Z,40.67
2022-11-29T03:11:32.590Z,41.88
2022-11-29T03:14:04.952Z,41.20
2022-11-29T03:17:00.590Z,37.85
2022-11-29T03:19:33.796Z,38.78
2022-11-29T03:22:20.832Z,38.38
2022-11-29T03:24:53.685Z,36.17
2022-11-29T03:27:42.367Z,35.83
2022-11-29T03:30:12.519Z,37.85
2022-11-29T03:33:01.249Z,37.20
2022-11-29T03:35:37.575Z,32.38
2022-11-29T03:38:33.671Z,34.80
2022-11-29T03:41:27.634Z,35.90
2022-11-29T03:44:18.738Z,40.08
2022-11-29T03:47:01.977Z,38.63
2022-11-29T03:49:35.592Z,38.30
2022-11-29T03:52:17.182Z,40.95
2022-11-29T03:55:00.866Z,38.70
2022-11-29T03:57:39.845Z,41.53
2022-11-29T04:00:12.846Z,39.45
2022-11-29T04:02:48.729Z,39.70
2022-11-29T04:05:28.669Z,39.58
2022-11-29T04:08:08.481Z,42.42
2022-11-29T04:11:00.033Z,39.20
2022-11-29T04:13:47.233Z,38.95
2022-11-29T04:16:22.379Z,39.38
2022-11-29T04:19:16.669Z,33.92
2022-11-29T04:22:20.565Z,35.03
2022-11-29T04:25:08.538Z,32.00
2022-11-29T04:27:38.323Z,33.00
2022-11-29T04:30:10.083Z,37.22
2022-11-29T04:32:51.631Z,33.23
2022-11-29T04:35:52.622Z,34.75
2022-11-29T04:38:33.727Z,32.38
2022-11-29T04:41:26.310Z,32.53
2022-11-29T04:44:12.730Z,31.92
2022-11-29T04:46:45.723Z,31.40
2022-11-29T04:49:33.558Z,33.90
2022-11-29T04:52:15.372Z,34.95
2022-11-29T04:55:26.179Z,35.50
2022-11-29T04:58:27.870Z,35.50
2022-11-29T05:01:17.909Z,37.25
2022-11-29T05:04:22.071Z,33.28
2022-11-29T05:06:54.501Z,32.78
2022-11-29T05:09:54.958Z,29.50
2022-11-29T05:12:46.065Z,31.27
2022-11-29T05:15:41.468Z,31.27
2022-11-29T05:18:45.223Z,34.00
2022-11-29T05:21:32.048Z,30.40
2022-11-29T05:24:35.401Z,29.90
2022-11-29T05:27:07.905Z,26.70
2022-11-29T05:29:45.474Z,24.85
2022-11-29T05:32:51.736Z,28.20
2022-11-29T05:36:09.549Z,29.67
2022-11-29T05:39:07.858Z,26.27
2022-11-29T05:42:16.791Z,27.63
2022-11-29T05:44:55.180Z,27.05
2022-11-29T05:47:31.567Z,29.98
2022-11-29T05:50:13.534Z,27.17
2022-11-29T05:53:11.557Z,26.20
2022-11-29T05:55:52.579Z,28.83
2022-11-29T05:58:50.406Z,26.98
2022-11-29T06:01:20.077Z,28.15
2022-11-29T06:03:58.268Z,27.20
2022-11-29T06:06:35.215Z,31.70
2022-11-29T06:09:14.623Z,26.33
2022-11-29T06:11:52.959Z,27.77
2022-11-29T06:14:40.129Z,27.75
2022-11-29T06:17:25.855Z,27.45
2022-11-29T06:20:01.054Z,29.13
2022-11-29T06:22:51.113Z,27.85
2022-11-29T06:25:21.671Z,28.38
2022-11-29T06:28:16.582Z,22.13
2022-11-29T06:30:45.991Z,25.00
2022-11-29T06:33:28.469Z,21.45
2022-11-29T06:36:19.813Z,21.65
2022-11-29T06:38:46.858Z,23.48
2022-11-29T06:41:18.717Z,21.05
2022-11-29T06:43:46.254Z,22.80
2022-11-29T06:46:13.190Z,23.45
2022-11-29T06:48:56.611Z,27.02
2022-11-29T06:51:33.363Z,24.85
2022-11-29T06:54:20.287Z,23.30
2022-11-29T06:56:53.507Z,23.58
2022-11-29T06:59:39.307Z,23.30
2022-11-29T07:02:12.144Z,23.35
2022-11-29T07:04:50.855Z,25.33
2022-11-29T07:07:22.508Z,26.13
2022-11-29T07:09:56.874Z,27.20
2022-11-29T07:12:23.852Z,22.30
2022-11-29T07:14:50.919Z,23.15
2022-11-29T07:17:45.027Z,23.23
2022-11-29T07:20:45.142Z,24.05
2022-11-29T07:23:42.448Z,24.25
2022-11-29T07:26:42.613Z,22.98
2022-11-29T07:29:44.839Z,23.05
2022-11-29T07:32:23.159Z,24.48
2022-11-29T07:35:16.398Z,22.65
2022-11-29T07:38:15.232Z,22.52
2022-11-29T07:41:04.173Z,21.13
2022-11-29T07:43:43.973Z,21.90
2022-11-29T07:46:10.848Z,19.25
2022-11-29T07:48:37.607Z,20.65
2022-11-29T07:51:04.608Z,22.08
2022-11-29T07:53:31.450Z,20.88
2022-11-29T07:55:58.706Z,20.98
2022-11-29T07:58:25.572Z,20.42
2022-11-29T08:00:52.430Z,20.33
2022-11-29T08:03:19.386Z,17.80
2022-11-29T08:05:47.677Z,15.85
2022-11-29T08:08:15.028Z,15.93
2022-11-29T08:10:41.687Z,16.00
2022-11-29T08:13:08.350Z,16.20
2022-11-29T08:15:35.169Z,17.55
2022-11-29T08:18:02.650Z,15.43
2022-11-29T08:20:29.277Z,16.30
2022-11-29T08:22:58.267Z,15.65
2022-11-29T08:25:25.999Z,15.32
2022-11-29T08:27:54.627Z,16.67
2022-11-29T08:30:22.388Z,15.70
2022-11-29T08:32:51.789Z,16.80
2022-11-29T08:35:20.541Z,15.68
2022-11-29T08:37:47.492Z,15.52
2022-11-29T08:40:14.786Z,18.15
2022-11-29T08:42:41.454Z,16.65
2022-11-29T08:45:09.677Z,17.60
2022-11-29T08:47:36.870Z,15.18
2022-11-29T08:50:08.546Z,13.75
2022-11-29T08:52:56.232Z,14.23
2022-11-29T08:55:25.801Z,13.45
2022-11-29T08:57:53.424Z,13.60
2022-11-29T09:00:21.462Z,12.73
2022-11-29T09:02:48.694Z,12.23
2022-11-29T09:05:15.970Z,11.77
2022-11-29T09:07:43.134Z,11.38
2022-11-29T09:10:11.353Z,12.95
2022-11-29T09:12:39.978Z,11.70
2022-11-29T09:15:09.355Z,14.18
2022-11-29T09:17:36.376Z,12.75
2022-11-29T09:20:04.703Z,12.95
2022-11-29T09:22:31.765Z,13.20
2022-11-29T09:24:58.762Z,11.85
2022-11-29T09:27:25.631Z,12.25
2022-11-29T09:29:52.282Z,11.70
2022-11-29T09:32:19.120Z,12.40
2022-11-29T09:34:46.325Z,11.45
2022-11-29T09:37:13.299Z,12.00
2022-11-29T09:39:41.469Z,10.82
2022-11-29T09:42:24.050Z,11.75
2022-11-29T09:45:06.873Z,12.68
2022-11-29T09:50:29.047Z,11.70
2022-11-29T09:52:55.777Z,12.48
2022-11-29T09:55:47.701Z,12.98
2022-11-29T09:58:22.460Z,12.75
2022-11-29T10:00:53.029Z,12.95
2022-11-29T10:03:36.346Z,14.27
2022-11-29T10:06:11.938Z,11.77
2022-11-29T10:08:46.101Z,12.90
2022-11-29T10:11:28.245Z,12.82
2022-11-29T10:14:13.150Z,12.05
2022-11-29T10:16:45.742Z,11.38
2022-11-29T10:22:17.308Z,10.32
2022-11-29T10:24:49.617Z,11.02
2022-11-29T10:27:23.778Z,12.20
2022-11-29T10:29:53.562Z,14.50
2022-11-29T10:32:23.541Z,13.30
2022-11-29T10:34:51.135Z,12.82
2022-11-29T10:37:20.420Z,13.40
2022-11-29T10:39:58.631Z,11.93
2022-11-29T10:42:46.892Z,13.00
2022-11-29T10:45:27.814Z,14.13
2022-11-29T10:48:16.882Z,12.77
2022-11-29T10:50:45.827Z,13.27
2022-11-29T10:53:22.697Z,13.75
2022-11-29T10:56:14.421Z,13.70
2022-11-29T10:58:57.009Z,14.27
2022-11-29T11:01:24.824Z,13.77
2022-11-29T11:03:56.329Z,13.75
2022-11-29T11:06:41.237Z,13.60
2022-11-29T11:09:25.455Z,15.57
2022-11-29T11:11:55.410Z,15.55
2022-11-29T11:14:26.888Z,14.18
2022-11-29T11:16:54.155Z,14.70
2022-11-29T11:19:32.578Z,14.85
2022-11-29T11:22:02.324Z,14.10
2022-11-29T11:24:35.806Z,15.15
2022-11-29T11:27:02.965Z,13.75
2022-11-29T11:29:37.979Z,14.15
2022-11-29T11:32:07.730Z,13.27
2022-11-29T11:34:38.742Z,14.07
2022-11-29T11:37:28.003Z,14.43
2022-11-29T11:39:59.766Z,13.73
2022-11-29T11:42:37.702Z,13.98
2022-11-29T11:45:10.610Z,11.80
2022-11-29T11:47:57.340Z,12.52
2022-11-29T11:50:41.793Z,11.60
2022-11-29T11:53:21.483Z,12.77
2022-11-29T11:55:56.978Z,13.18
2022-11-29T11:58:25.837Z,12.85
2022-11-29T12:01:03.841Z,14.63
2022-11-29T12:04:02.145Z,15.63
2022-11-29T12:06:53.641Z,13.63
2022-11-29T12:09:27.259Z,15.25
2022-11-29T12:12:28.161Z,16.63
2022-11-29T12:14:59.978Z,14.77
2022-11-29T12:17:31.601Z,14.68
2022-11-29T12:20:28.209Z,15.63
2022-11-29T12:23:12.710Z,15.80
2022-11-29T12:25:54.437Z,17.58
2022-11-29T12:28:25.038Z,17.60
2022-11-29T12:31:36.043Z,16.83
2022-11-29T12:34:22.455Z,16.73
2022-11-29T12:36:52.277Z,17.27
2022-11-29T12:39:37.357Z,16.45
2022-11-29T12:42:32.458Z,16.90
2022-11-29T12:45:05.365Z,15.77
2022-11-29T12:47:56.884Z,14.98
2022-11-29T12:50:28.882Z,15.02
2022-11-29T12:53:09.127Z,15.88
2022-11-29T12:56:05.250Z,14.82
2022-11-29T12:58:45.651Z,14.95
2022-11-29T13:01:28.958Z,13.90
2022-11-29T13:04:04.498Z,15.25
2022-11-29T13:07:01.012Z,16.65
2022-11-29T13:09:49.319Z,15.73
2022-11-29T13:12:24.965Z,16.33
2022-11-29T13:15:06.760Z,16.02
2022-11-29T13:17:46.108Z,16.15
2022-11-29T13:20:18.965Z,17.17
2022-11-29T13:22:56.859Z,17.13
2022-11-29T13:25:45.567Z,16.48
2022-11-29T13:28:25.083Z,16.60
2022-11-29T13:30:54.892Z,16.48
2022-11-29T13:33:53.260Z,16.02
2022-11-29T13:36:45.774Z,18.20
2022-11-29T13:39:18.443Z,18.17
2022-11-29T13:41:55.180Z,18.90
2022-11-29T13:44:34.127Z,17.58
2022-11-29T13:47:11.221Z,18.33
2022-11-29T13:50:02.402Z,20.55
2022-11-29T13:52:47.321Z,20.13
2022-11-29T13:55:23.469Z,16.85
2022-11-29T13:58:16.860Z,17.35
2022-11-29T14:00:44.689Z,19.48
2022-11-29T14:03:23.372Z,20.92
2022-11-29T14:05:53.154Z,19.85
2022-11-29T14:08:42.146Z,20.48
2022-11-29T14:11:28.484Z,17.77
2022-11-29T14:14:06.021Z,20.25
2022-11-29T14:16:54.605Z,19.73
2022-11-29T14:19:33.096Z,17.80
2022-11-29T14:22:03.174Z,18.55
2022-11-29T14:24:35.577Z,18.70
2022-11-29T14:27:14.323Z,20.85
2022-11-29T14:29:50.451Z,18.42
2022-11-29T14:32:30.631Z,18.80
2022-11-29T14:35:33.686Z,18.02
2022-11-29T14:38:31.088Z,18.50
2022-11-29T14:41:17.284Z,18.40
2022-11-29T14:43:44.182Z,19.65
2022-11-29T14:46:17.326Z,18.83
2022-11-29T14:48:54.534Z,18.95
2022-11-29T14:51:23.818Z,19.17
2022-11-29T14:54:13.070Z,19.95
2022-11-29T14:56:42.673Z,17.90
2022-11-29T14:59:51.722Z,20.05
2022-11-29T15:02:34.762Z,20.38
2022-11-29T15:05:35.694Z,18.58
2022-11-29T15:08:40.843Z,18.95
2022-11-29T15:11:20.421Z,19.42
2022-11-29T15:14:03.044Z,19.92
2022-11-29T15:16:42.065Z,18.98
2022-11-29T15:19:17.959Z,18.48
2022-11-29T15:22:09.731Z,20.13
2022-11-29T15:25:05.070Z,20.40
2022-11-29T15:27:35.070Z,19.83
2022-11-29T15:30:41.257Z,19.90
2022-11-29T15:33:20.124Z,19.58
2022-11-29T15:35:52.914Z,21.83
2022-11-29T15:38:21.774Z,19.48
2022-11-29T15:40:54.016Z,22.15
2022-11-29T15:43:30.391Z,21.23
2022-11-29T15:45:58.861Z,22.13
2022-11-29T15:48:31.114Z,18.45
2022-11-29T15:51:00.635Z,19.73
2022-11-29T15:54:12.228Z,18.27
2022-11-29T15:56:51.941Z,19.02
2022-11-29T15:59:36.738Z,17.38
2022-11-29T16:02:20.189Z,18.05
2022-11-29T16:04:49.729Z,18.13
2022-11-29T16:07:18.077Z,19.67
2022-11-29T16:09:52.706Z,19.08
2022-11-29T16:12:19.550Z,16.17
2022-11-29T16:14:57.922Z,19.23
2022-11-29T16:17:34.064Z,20.27
2022-11-29T16:20:18.980Z,19.08
2022-11-29T16:22:46.106Z,17.40
2022-11-29T16:25:20.046Z,17.77
2022-11-29T16:27:47.669Z,19.25
2022-11-29T16:30:22.767Z,18.75
2022-11-29T16:32:55.569Z,19.98
2022-11-29T16:35:26.051Z,21.10
2022-11-29T16:37:55.325Z,19.08
2022-11-29T16:40:28.158Z,21.80
2022-11-29T16:43:04.111Z,20.40
2022-11-29T16:45:42.116Z,22.08
2022-11-29T16:48:25.411Z,22.95
2022-11-29T16:51:20.398Z,20.73
2022-11-29T16:53:51.768Z,23.45
2022-11-29T16:56:27.711Z,21.20
2022-11-29T16:59:26.234Z,22.90
2022-11-29T17:01:49.943Z,22.50
2022-11-29T17:04:23.516Z,19.67
2022-11-29T17:06:52.784Z,18.17
2022-11-29T17:09:28.487Z,21.92
2022-11-29T17:11:56.468Z,17.95
2022-11-29T17:14:23.261Z,17.25
2022-11-29T17:16:50.425Z,18.27
2022-11-29T17:19:19.241Z,17.80
2022-11-29T17:21:46.340Z,18.85
2022-11-29T17:24:15.967Z,21.23
2022-11-29T17:26:43.834Z,18.35
2022-11-29T17:29:12.425Z,20.70
2022-11-29T17:31:39.247Z,19.95
2022-11-29T17:34:06.513Z,20.80
2022-11-29T17:36:33.650Z,19.00
2022-11-29T17:39:01.408Z,20.98
2022-11-29T17:41:29.665Z,21.65
2022-11-29T17:43:57.016Z,21.25
2022-11-29T17:46:26.802Z,19.92
2022-11-29T17:48:54.474Z,22.48
2022-11-29T17:51:50.624Z,22.88
2022-11-29T17:54:09.838Z,23.90
2022-11-29T17:56:36.903Z,20.02
2022-11-29T17:59:04.816Z,21.75
2022-11-29T18:01:34.707Z,24.38
2022-11-29T18:04:04.057Z,21.65
2022-11-29T18:06:39.763Z,18.90
2022-11-29T18:09:09.625Z,18.40
2022-11-29T18:11:47.382Z,19.35
2022-11-29T18:14:18.737Z,16.52
2022-11-29T18:16:45.920Z,18.00
2022-11-29T18:19:16.343Z,19.38
2022-11-29T18:21:45.004Z,17.13
2022-11-29T18:24:12.069Z,17.58
2022-11-29T18:26:39.081Z,19.48
2022-11-29T18:29:07.025Z,16.20
2022-11-29T18:31:36.023Z,16.98
2022-11-29T18:34:09.542Z,18.10
2022-11-29T18:36:45.365Z,18.60
2022-11-29T18:39:14.422Z,18.10
2022-11-29T18:41:46.167Z,18.20
2022-11-29T18:44:15.319Z,18.50
2022-11-29T18:46:43.430Z,17.42
2022-11-29T18:49:12.994Z,18.48
2022-11-29T18:51:42.805Z,18.20
2022-11-29T18:54:09.686Z,18.73
2022-11-29T18:56:37.027Z,21.75
2022-11-29T18:59:10.357Z,19.17
2022-11-29T19:01:41.294Z,18.88
2022-11-29T19:04:13.927Z,18.35
2022-11-29T19:06:41.169Z,19.98
2022-11-29T19:09:15.466Z,16.80
2022-11-29T19:11:42.655Z,16.77
2022-11-29T19:14:12.572Z,17.90
2022-11-29T19:16:43.819Z,18.35
2022-11-29T19:19:11.269Z,18.33
2022-11-29T19:21:39.921Z,17.55
2022-11-29T19:24:13.756Z,18.67
2022-11-29T19:26:43.093Z,17.92
2022-11-29T19:29:10.015Z,17.27
2022-11-29T19:31:39.169Z,18.02
2022-11-29T19:34:06.510Z,19.73
2022-11-29T19:36:33.558Z,20.67
2022-11-29T19:39:01.605Z,17.15
2022-11-29T19:41:31.354Z,17.92
2022-11-29T19:44:00.390Z,18.38
2022-11-29T19:46:32.434Z,20.27
2022-11-29T19:49:00.502Z,18.85
2022-11-29T19:51:28.257Z,18.75
2022-11-29T19:54:00.756Z,17.05
2022-11-29T19:56:28.376Z,14.93
2022-11-29T19:58:55.950Z,14.18
2022-11-29T20:01:25.403Z,13.23
2022-11-29T20:03:54.740Z,13.25
2022-11-29T20:06:21.668Z,13.88
2022-11-29T20:08:48.481Z,13.52
2022-11-29T20:11:21.004Z,12.90
2022-11-29T20:16:19.307Z,14.40
2022-11-29T20:18:51.098Z,15.02
2022-11-29T20:21:27.198Z,17.92
2022-11-29T20:23:58.794Z,17.88
2022-11-29T20:26:26.899Z,17.85
2022-11-29T20:28:53.711Z,17.67
2022-11-29T20:31:22.874Z,16.38
2022-11-29T20:33:52.689Z,16.67
2022-11-29T20:36:38.417Z,14.27
2022-11-29T20:39:42.469Z,16.98
2022-11-29T20:42:31.596Z,19.25
2022-11-29T20:45:00.165Z,18.23
2022-11-29T20:47:32.960Z,19.42
2022-11-29T20:49:59.887Z,16.13
2022-11-29T20:52:43.112Z,16.45
2022-11-29T20:55:09.870Z,14.15
2022-11-29T20:57:38.454Z,14.07
2022-11-29T21:00:11.366Z,14.60
2022-11-29T21:02:38.809Z,15.20
2022-11-29T21:05:06.527Z,15.07
2022-11-29T21:07:33.386Z,18.63
2022-11-29T21:10:01.524Z,18.40
2022-11-29T21:12:29.791Z,16.60
2022-11-29T21:14:57.338Z,17.70
2022-11-29T21:17:30.123Z,15.32
2022-11-29T21:20:00.161Z,15.82
2022-11-29T21:22:57.723Z,14.52
2022-11-29T21:25:44.414Z,14.20
2022-11-29T21:28:13.608Z,13.82
2022-11-29T21:30:41.115Z,12.70
2022-11-29T21:33:08.859Z,13.02
2022-11-29T21:35:39.542Z,10.63
2022-11-29T21:38:10.086Z,10.35
2022-11-29T21:40:36.774Z,10.77
2022-11-29T21:43:03.398Z,10.73
2022-11-29T21:45:30.063Z,9.93
2022-11-29T21:48:00.541Z,10.93
2022-11-29T21:50:27.306Z,9.80
2022-11-29T21:52:54.006Z,10.07
2022-11-29T21:55:20.829Z,9.75
2022-11-29T21:57:47.457Z,9.40
2022-11-29T22:00:14.626Z,10.13
2022-11-29T22:02:41.407Z,9.57
2022-11-29T22:05:09.583Z,10.10
2022-11-29T22:07:36.377Z,9.73
2022-11-29T22:10:09.931Z,10.07
2022-11-29T22:12:38.443Z,10.02
2022-11-29T22:15:05.734Z,10.00
2022-11-29T22:17:32.574Z,9.80
2022-11-29T22:19:59.407Z,9.48
2022-11-29T22:22:28.227Z,8.90
2022-11-29T22:24:55.155Z,9.88
2022-11-29T22:27:21.922Z,9.90
2022-11-29T22:29:48.862Z,9.63
2022-11-29T22:32:15.701Z,9.43
2022-11-29T22:34:42.553Z,9.63
2022-11-29T22:37:09.245Z,10.00
2022-11-29T22:39:35.934Z,10.73
2022-11-29T22:42:02.652Z,10.55
2022-11-29T22:44:30.190Z,9.48
2022-11-29T22:46:57.102Z,9.27
2022-11-29T22:49:24.033Z,9.93
2022-11-29T22:51:50.922Z,10.57
2022-11-29T22:54:17.930Z,10.85
2022-11-29T22:56:45.780Z,10.48
2022-11-29T22:59:13.425Z,11.35
2022-11-29T23:01:41.383Z,12.43
2022-11-29T23:04:11.079Z,12.02
2022-11-29T23:06:43.864Z,14.60
2022-11-29T23:09:17.122Z,13.00
2022-11-29T23:11:45.742Z,13.45
2022-11-29T23:14:13.077Z,13.93
2022-11-29T23:16:40.677Z,15.07
2022-11-29T23:19:07.615Z,14.05
2022-11-29T23:21:39.780Z,14.70
2022-11-29T23:24:07.121Z,14.65
2022-11-29T23:26:40.136Z,16.45
2022-11-29T23:29:18.105Z,15.50
2022-11-29T23:31:45.198Z,16.75
2022-11-29T23:34:12.238Z,16.20
2022-11-29T23:36:39.117Z,17.40
2022-11-29T23:39:08.940Z,16.88
2022-11-29T23:41:38.800Z,17.33
2022-11-29T23:44:06.227Z,16.90
2022-11-29T23:46:34.562Z,17.17
2022-11-29T23:49:01.246Z,18.63
2022-11-29T23:51:27.980Z,16.77
2022-11-29T23:53:54.882Z,17.90
2022-11-29T23:56:22.618Z,18.45
2022-11-29T23:58:49.424Z,18.85
